| time (UTC) | temp F | wind direction | speed MPH | gust MPH | rain 1hr in | rain 24hr in | rain mn in | humidity % | barometer mb |
| 20260506111557 | 55 | 77 | 1.0 | 5.0 | 0.00 | 0.00 | 0.00 | 86 | 1018.4 |
| 20260506110100 | 54 | 0 | 1.0 | 2.0 | 0.00 | 0.00 | 0.00 | 87 | 1018.6 |
| 20260506104600 | 54 | 70 | 1.0 | 3.0 | 0.00 | 0.00 | 0.00 | 87 | 1018.5 |
| 20260506103119 | 55 | 82 | 0.0 | 4.0 | 0.00 | 0.00 | 0.00 | 86 | 1018.4 |
| 20260506101556 | 55 | 71 | 1.0 | 5.0 | 0.00 | 0.00 | 0.00 | 87 | 1018.4 |
| 20260506100056 | 54 | 90 | 2.0 | 4.0 | 0.00 | 0.00 | 0.00 | 87 | 1018.4 |
| 20260506094605 | 55 | 92 | 1.0 | 4.0 | 0.00 | 0.00 | 0.00 | 88 | 1018.6 |
| 20260506093059 | 55 | 0 | 0.0 | 2.0 | 0.00 | 0.00 | 0.00 | 87 | 1018.6 |
| 20260506091607 | 55 | 0 | 0.0 | 3.0 | 0.00 | 0.00 | 0.00 | 87 | 1019.0 |
| 20260506090100 | 55 | 0 | 0.0 | 4.0 | 0.00 | 0.00 | 0.00 | 87 | 1018.7 |
| 20260506084615 | 56 | 94 | 2.0 | 7.0 | 0.00 | 0.00 | 0.00 | 87 | 1018.9 |
| 20260506083057 | 56 | 71 | 2.0 | 6.0 | 0.00 | 0.00 | 0.00 | 87 | 1018.9 |
| 20260506081607 | 56 | 101 | 2.0 | 8.0 | 0.00 | 0.00 | 0.00 | 87 | 1019.0 |
| 20260506073101 | 56 | 69 | 2.0 | 8.0 | 0.00 | 0.00 | 0.00 | 88 | 1018.9 |
| 20260506071558 | 56 | 77 | 4.0 | 8.0 | 0.00 | 0.00 | 0.00 | 88 | 1018.8 |
| 20260506061602 | 56 | 86 | 2.0 | 6.0 | 0.00 | 0.00 | 0.00 | 88 | 1018.2 |
| 20260506050118 | 57 | 58 | 2.0 | 5.0 | 0.00 | 0.00 | 0.00 | 88 | 1017.8 |
| 20260506044601 | 57 | 96 | 2.0 | 5.0 | 0.00 | 0.00 | 0.00 | 87 | 1017.7 |
| 20260506043115 | 57 | 83 | 3.0 | 6.0 | 0.00 | 0.00 | 0.00 | 88 | 1017.5 |
| 20260506041600 | 57 | 107 | 1.0 | 4.0 | 0.00 | 0.00 | 0.00 | 87 | 1017.4 |
| 20260506040110 | 57 | 128 | 1.0 | 3.0 | 0.00 | 0.00 | 0.00 | 87 | 1017.1 |
| 20260506034606 | 58 | 131 | 1.0 | 4.0 | 0.00 | 0.00 | 0.00 | 86 | 1016.8 |
| 20260506033059 | 58 | 175 | 0.0 | 2.0 | 0.00 | 0.00 | 0.00 | 85 | 1016.5 |
| 20260506031600 | 59 | 165 | 0.0 | 4.0 | 0.00 | 0.00 | 0.00 | 83 | 1016.5 |
| 20260506024602 | 60 | 184 | 1.0 | 3.0 | 0.00 | 0.00 | 0.00 | 79 | 1015.9 |
| 20260506023100 | 61 | 0 | 0.0 | 2.0 | 0.00 | 0.00 | 0.00 | 78 | 1015.6 |
| 20260506021605 | 62 | 0 | 0.0 | 3.0 | 0.00 | 0.00 | 0.00 | 76 | 1015.5 |
| 20260506020059 | 63 | 284 | 0.0 | 3.0 | 0.00 | 0.00 | 0.00 | 74 | 1015.3 |
| 20260506014601 | 63 | 285 | 0.0 | 4.0 | 0.00 | 0.00 | 0.00 | 74 | 1015.2 |
| 20260506013106 | 63 | 0 | 0.0 | 6.0 | 0.00 | 0.00 | 0.00 | 75 | 1015.2 |
| 20260506011607 | 63 | 281 | 1.0 | 8.0 | 0.00 | 0.00 | 0.00 | 75 | 1015.1 |
| 20260506010058 | 64 | 298 | 0.0 | 9.0 | 0.00 | 0.00 | 0.00 | 75 | 1015.2 |
| 20260506004558 | 64 | 288 | 1.0 | 5.0 | 0.00 | 0.00 | 0.00 | 75 | 1015.2 |
| 20260506003059 | 64 | 257 | 1.0 | 10.0 | 0.00 | 0.00 | 0.00 | 76 | 1015.6 |
| 20260506001604 | 63 | 293 | 1.0 | 10.0 | 0.00 | 0.00 | 0.00 | 75 | 1015.6 |
| 20260506000059 | 64 | 278 | 2.0 | 4.0 | 0.00 | 0.00 | 0.00 | 73 | 1015.4 |
| 20260505234609 | 65 | 157 | 1.0 | 8.0 | 0.00 | 0.00 | 0.00 | 72 | 1015.4 |
| 20260505233059 | 66 | 290 | 2.0 | 7.0 | 0.00 | 0.00 | 0.00 | 72 | 1015.4 |
| 20260505231608 | 67 | 0 | 1.0 | 9.0 | 0.00 | 0.00 | 0.00 | 70 | 1015.3 |
| 20260505230058 | 67 | 280 | 1.0 | 6.0 | 0.00 | 0.00 | 0.00 | 70 | 1015.3 |
| 20260505224600 | 66 | 272 | 2.0 | 9.0 | 0.00 | 0.00 | 0.00 | 71 | 1015.5 |
| 20260505223106 | 64 | 270 | 2.0 | 11.0 | 0.00 | 0.00 | 0.00 | 73 | 1015.8 |
| 20260505221600 | 64 | 285 | 1.0 | 10.0 | 0.00 | 0.00 | 0.00 | 75 | 1015.9 |
| 20260505220058 | 65 | 260 | 2.0 | 6.0 | 0.00 | 0.00 | 0.00 | 73 | 1016.1 |
| 20260505214621 | 66 | 235 | 1.0 | 5.0 | 0.00 | 0.00 | 0.00 | 70 | 1016.3 |
| 20260505213104 | 67 | 5 | 1.0 | 6.0 | 0.00 | 0.00 | 0.00 | 70 | 1016.4 |
| 20260505211608 | 65 | 198 | 1.0 | 9.0 | 0.00 | 0.00 | 0.00 | 73 | 1016.5 |
| 20260505210057 | 65 | 289 | 1.0 | 15.0 | 0.00 | 0.00 | 0.00 | 72 | 1016.4 |
| 20260505204559 | 64 | 221 | 1.0 | 14.0 | 0.00 | 0.00 | 0.00 | 73 | 1016.4 |
| 20260505203100 | 64 | 205 | 1.0 | 11.0 | 0.00 | 0.00 | 0.00 | 73 | 1016.3 |
| 20260505201600 | 65 | 279 | 3.0 | 14.0 | 0.00 | 0.00 | 0.00 | 71 | 1016.3 |
| 20260505200106 | 66 | 286 | 2.0 | 9.0 | 0.00 | 0.00 | 0.00 | 70 | 1016.3 |
| 20260505194600 | 65 | 263 | 1.0 | 4.0 | 0.00 | 0.00 | 0.00 | 70 | 1016.4 |
| 20260505193100 | 65 | 288 | 1.0 | 4.0 | 0.00 | 0.00 | 0.00 | 66 | 1016.3 |
| 20260505191558 | 66 | 284 | 1.0 | 10.0 | 0.00 | 0.00 | 0.00 | 68 | 1016.5 |
| 20260505190100 | 65 | 289 | 2.0 | 12.0 | 0.00 | 0.00 | 0.00 | 66 | 1016.4 |
| 20260505184557 | 65 | 222 | 4.0 | 14.0 | 0.00 | 0.00 | 0.00 | 61 | 1016.4 |
| 20260505183106 | 66 | 284 | 2.0 | 9.0 | 0.00 | 0.00 | 0.00 | 62 | 1016.2 |
| 20260505181600 | 66 | 250 | 1.0 | 8.0 | 0.00 | 0.00 | 0.00 | 65 | 1016.2 |
| 20260505180105 | 66 | 288 | 1.0 | 4.0 | 0.00 | 0.00 | 0.00 | 62 | 1016.2 |
| 20260505174601 | 65 | 279 | 1.0 | 8.0 | 0.00 | 0.00 | 0.00 | 62 | 1016.1 |
| 20260505173101 | 64 | 241 | 1.0 | 6.0 | 0.00 | 0.00 | 0.00 | 65 | 1016.0 |
| 20260505171600 | 62 | 193 | 1.0 | 7.0 | 0.00 | 0.00 | 0.00 | 68 | 1015.8 |
| 20260505170057 | 60 | 0 | 2.0 | 7.0 | 0.00 | 0.00 | 0.00 | 71 | 1015.9 |
| 20260505164606 | 62 | 0 | 0.0 | 4.0 | 0.00 | 0.00 | 0.00 | 71 | 1015.7 |
| 20260505163101 | 61 | 0 | 0.0 | 3.0 | 0.00 | 0.00 | 0.00 | 74 | 1015.8 |
| 20260505153108 | 58 | 0 | 3.0 | 5.0 | 0.00 | 0.00 | 0.00 | 83 | 1015.6 |
| 20260505151610 | 58 | 68 | 2.0 | 6.0 | 0.00 | 0.00 | 0.00 | 82 | 1015.5 |
| 20260505140113 | 53 | 0 | 0.0 | 0.0 | 0.00 | 0.00 | 0.00 | 91 | 1015.1 |
| 20260505124608 | 52 | 0 | 0.0 | 0.0 | 0.00 | 0.00 | 0.00 | 90 | 1014.9 |
| 20260505123057 | 52 | 0 | 0.0 | 0.0 | 0.00 | 0.00 | 0.00 | 91 | 1015.1 |
| 20260505121600 | 52 | 0 | 0.0 | 0.0 | 0.00 | 0.00 | 0.00 | 90 | 1015.0 |
| 20260505120058 | 52 | 0 | 0.0 | 0.0 | 0.00 | 0.00 | 0.00 | 89 | 1015.1 |
| 20260505114600 | 53 | 0 | 0.0 | 0.0 | 0.00 | 0.00 | 0.00 | 90 | 1015.0 |
| 20260505113127 | 53 | 0 | 0.0 | 0.0 | 0.00 | 0.00 | 0.00 | 89 | 1015.0 |